Aviation Digital Data Service (ADDS)

Output produced by METARs form (2118 UTC 18 April 2021)
found at http://www.aviationweather.gov/metar/data/
 
METAR text: KSNA 182053Z 07008KT 10SM SCT250 31/M09 A2996 RMK AO2 SLP144 T03111089 58017
Conditions at: KSNA (COSTA MESA , CA, US) observed 2053 UTC 18 April 2021
Temperature: 31.1°C (88°F)
Dewpoint: -8.9°C (16°F) [RH =  7%]
Pressure (altimeter): 29.96 inches Hg (1014.6 mb)
[Sea-level pressure: 1014.4 mb]
Winds: from the ENE (70 degrees) at 9 MPH (8 knots; 4.1 m/s)
Visibility: 10 or more miles (16+ km)
Ceiling: at least 12,000 feet AGL
Clouds: scattered clouds at 25000 feet AGL
Weather: no significant weather observed at this time

METAR text: KSNA 181953Z 03014G21KT 10SM SCT250 31/M08 A2998 RMK AO2 PK WND 03028/1913 SLP152 T03061083
Conditions at: KSNA (COSTA MESA , CA, US) observed 1953 UTC 18 April 2021
Temperature: 30.6°C (87°F)
Dewpoint: -8.3°C (17°F) [RH =  7%]
Pressure (altimeter): 29.98 inches Hg (1015.3 mb)
[Sea-level pressure: 1015.2 mb]
Winds: from the NNE (30 degrees) at 16 MPH (14 knots; 7.2 m/s)
gusting to 24 MPH (21 knots; 10.8 m/s)
Visibility: 10 or more miles (16+ km)
Ceiling: at least 12,000 feet AGL
Clouds: scattered clouds at 25000 feet AGL
Weather: no significant weather observed at this time

Forecast for: KSNA (COSTA MESA , CA, US)
Text: KSNA 181722Z 1818/1918 06015G25KT P6SM SKC
Forecast period: 1800 to 2100 UTC 18 April 2021
Forecast type: FROM: standard forecast or significant change
Winds: from the ENE (60 degrees) at 17 MPH (15 knots; 7.7 m/s)
gusting to 29 MPH (25 knots; 12.9 m/s)
Visibility: 6 or more miles (10+ km)
Clouds: clear skies
Weather: no significant weather forecast for this period
Text: FM182100 06012G20KT P6SM SKC
Forecast period: 2100 to 2300 UTC 18 April 2021
Forecast type: FROM: standard forecast or significant change
Winds: from the ENE (60 degrees) at 14 MPH (12 knots; 6.2 m/s)
gusting to 23 MPH (20 knots; 10.3 m/s)
Visibility: 6 or more miles (10+ km)
Clouds: clear skies
Weather: no significant weather forecast for this period
Text: FM182300 26010KT P6SM SKC
Forecast period: 2300 UTC 18 April 2021 to 0300 UTC 19 April 2021
Forecast type: FROM: standard forecast or significant change
Winds: from the W (260 degrees) at 12 MPH (10 knots; 5.1 m/s)
Visibility: 6 or more miles (10+ km)
Clouds: clear skies
Weather: no significant weather forecast for this period
Text: FM190300 VRB04KT P6SM SKC
Forecast period: 0300 to 1800 UTC 19 April 2021
Forecast type: FROM: standard forecast or significant change
Winds: variable direction winds at 5 MPH (4 knots; 2.1 m/s)
Visibility: 6 or more miles (10+ km)
Clouds: clear skies
Weather: no significant weather forecast for this period